Ravenglass, United Kingdom
Current Conditions -  °F | °C
As of 12:50 PM on Friday 28 Nov 2014 (Local Time) from EGNC Reporting Station
Broken Clouds Broken Clouds  
Wind Chill: 46°   Ceiling: 2200
Heat Index: 48°   Visibility: 6mi
Dew Point: 48°   Wind: 6mph
Humidity: 100%   Direction: 90°E
Pressure: 29.74"   Gusts: NA
Location:  54.36°N, 3.39°W
Report Text: EGNC 281250Z 09005KT 060V130 9999 5000E FEW005 SCT013 BKN022 09/09 Q1007
Loading
Personal Weather Stations






























Interactive Weather Map New forecast layout! Learn more

10-Day Weather Forecast

Advertisements
Track Severe Weather on mobile